sensor_id;sensor_type;location;lat;lon;timestamp;P1;durP1;ratioP1;P2;durP2;ratioP2
25073;SDS011;13066;52.042;5.648;2023-08-12T00:01:04;20.63;;;9.38;;
25073;SDS011;13066;52.042;5.648;2023-08-12T00:03:32;12.20;;;8.25;;
25073;SDS011;13066;52.042;5.648;2023-08-12T00:06:00;19.25;;;8.70;;
25073;SDS011;13066;52.042;5.648;2023-08-12T00:08:28;14.68;;;9.13;;
25073;SDS011;13066;52.042;5.648;2023-08-12T00:10:56;19.25;;;9.57;;
25073;SDS011;13066;52.042;5.648;2023-08-12T00:13:25;16.77;;;9.27;;
25073;SDS011;13066;52.042;5.648;2023-08-12T00:15:53;14.57;;;9.57;;
25073;SDS011;13066;52.042;5.648;2023-08-12T00:18:22;13.98;;;9.40;;
25073;SDS011;13066;52.042;5.648;2023-08-12T00:20:50;16.02;;;9.75;;
25073;SDS011;13066;52.042;5.648;2023-08-12T00:23:18;16.02;;;9.38;;
25073;SDS011;13066;52.042;5.648;2023-08-12T00:25:46;18.13;;;10.77;;
25073;SDS011;13066;52.042;5.648;2023-08-12T00:28:14;22.30;;;10.52;;
25073;SDS011;13066;52.042;5.648;2023-08-12T00:30:47;16.17;;;9.90;;
25073;SDS011;13066;52.042;5.648;2023-08-12T00:33:15;17.85;;;10.45;;
25073;SDS011;13066;52.042;5.648;2023-08-12T00:35:44;19.83;;;9.43;;
25073;SDS011;13066;52.042;5.648;2023-08-12T00:38:12;20.83;;;10.80;;
25073;SDS011;13066;52.042;5.648;2023-08-12T00:40:40;19.58;;;10.98;;
25073;SDS011;13066;52.042;5.648;2023-08-12T00:43:08;19.63;;;10.85;;
25073;SDS011;13066;52.042;5.648;2023-08-12T00:45:36;13.77;;;10.18;;
25073;SDS011;13066;52.042;5.648;2023-08-12T00:48:06;13.93;;;9.88;;
25073;SDS011;13066;52.042;5.648;2023-08-12T00:50:38;20.08;;;12.10;;
25073;SDS011;13066;52.042;5.648;2023-08-12T00:53:06;17.20;;;10.23;;
25073;SDS011;13066;52.042;5.648;2023-08-12T00:55:35;26.08;;;11.40;;
25073;SDS011;13066;52.042;5.648;2023-08-12T00:58:03;23.17;;;11.95;;
25073;SDS011;13066;52.042;5.648;2023-08-12T01:00:32;20.60;;;11.35;;
25073;SDS011;13066;52.042;5.648;2023-08-12T01:03:00;24.25;;;11.60;;
25073;SDS011;13066;52.042;5.648;2023-08-12T01:05:30;21.45;;;12.20;;
25073;SDS011;13066;52.042;5.648;2023-08-12T01:07:58;21.73;;;12.50;;
25073;SDS011;13066;52.042;5.648;2023-08-12T01:10:27;23.13;;;12.38;;
25073;SDS011;13066;52.042;5.648;2023-08-12T01:13:02;23.57;;;12.23;;
25073;SDS011;13066;52.042;5.648;2023-08-12T01:15:34;18.90;;;12.45;;
25073;SDS011;13066;52.042;5.648;2023-08-12T01:18:03;19.02;;;11.88;;
25073;SDS011;13066;52.042;5.648;2023-08-12T01:20:33;23.10;;;12.13;;
25073;SDS011;13066;52.042;5.648;2023-08-12T01:23:08;21.08;;;11.98;;
25073;SDS011;13066;52.042;5.648;2023-08-12T01:25:37;22.60;;;10.65;;
25073;SDS011;13066;52.042;5.648;2023-08-12T01:28:05;17.23;;;10.35;;
25073;SDS011;13066;52.042;5.648;2023-08-12T01:30:33;17.58;;;9.95;;
25073;SDS011;13066;52.042;5.648;2023-08-12T01:33:05;20.65;;;11.48;;
25073;SDS011;13066;52.042;5.648;2023-08-12T01:35:36;20.98;;;11.20;;
25073;SDS011;13066;52.042;5.648;2023-08-12T01:38:08;17.75;;;10.98;;
25073;SDS011;13066;52.042;5.648;2023-08-12T01:40:38;16.63;;;10.18;;
25073;SDS011;13066;52.042;5.648;2023-08-12T01:43:07;19.35;;;11.43;;
25073;SDS011;13066;52.042;5.648;2023-08-12T01:45:35;19.23;;;10.98;;
25073;SDS011;13066;52.042;5.648;2023-08-12T01:48:04;16.50;;;10.18;;
25073;SDS011;13066;52.042;5.648;2023-08-12T01:50:32;20.10;;;10.88;;
25073;SDS011;13066;52.042;5.648;2023-08-12T01:53:00;20.25;;;11.60;;
25073;SDS011;13066;52.042;5.648;2023-08-12T01:55:30;18.30;;;10.63;;
25073;SDS011;13066;52.042;5.648;2023-08-12T01:57:58;18.55;;;10.73;;
25073;SDS011;13066;52.042;5.648;2023-08-12T02:00:26;15.70;;;11.02;;
25073;SDS011;13066;52.042;5.648;2023-08-12T02:02:54;16.98;;;11.55;;
25073;SDS011;13066;52.042;5.648;2023-08-12T02:05:22;15.95;;;9.85;;
25073;SDS011;13066;52.042;5.648;2023-08-12T02:07:50;20.98;;;11.25;;
25073;SDS011;13066;52.042;5.648;2023-08-12T02:10:18;19.38;;;10.73;;
25073;SDS011;13066;52.042;5.648;2023-08-12T02:12:47;16.58;;;11.73;;
25073;SDS011;13066;52.042;5.648;2023-08-12T02:15:15;19.17;;;11.40;;
25073;SDS011;13066;52.042;5.648;2023-08-12T02:17:43;24.90;;;12.10;;
25073;SDS011;13066;52.042;5.648;2023-08-12T02:20:11;20.50;;;12.82;;
25073;SDS011;13066;52.042;5.648;2023-08-12T02:22:39;24.48;;;11.95;;
25073;SDS011;13066;52.042;5.648;2023-08-12T02:25:07;22.98;;;12.48;;
25073;SDS011;13066;52.042;5.648;2023-08-12T02:27:35;21.98;;;12.95;;
25073;SDS011;13066;52.042;5.648;2023-08-12T02:30:05;21.35;;;13.60;;
25073;SDS011;13066;52.042;5.648;2023-08-12T02:32:34;21.10;;;13.07;;
25073;SDS011;13066;52.042;5.648;2023-08-12T02:35:03;29.75;;;16.00;;
25073;SDS011;13066;52.042;5.648;2023-08-12T02:37:31;23.40;;;15.02;;
25073;SDS011;13066;52.042;5.648;2023-08-12T02:39:59;23.73;;;15.40;;
25073;SDS011;13066;52.042;5.648;2023-08-12T02:42:29;26.90;;;15.77;;
25073;SDS011;13066;52.042;5.648;2023-08-12T02:44:57;24.80;;;15.40;;
25073;SDS011;13066;52.042;5.648;2023-08-12T02:47:27;28.02;;;16.75;;
25073;SDS011;13066;52.042;5.648;2023-08-12T02:49:55;26.58;;;15.05;;
25073;SDS011;13066;52.042;5.648;2023-08-12T02:52:23;29.92;;;16.50;;
25073;SDS011;13066;52.042;5.648;2023-08-12T02:54:51;23.58;;;16.77;;
25073;SDS011;13066;52.042;5.648;2023-08-12T02:57:21;26.90;;;16.00;;
25073;SDS011;13066;52.042;5.648;2023-08-12T02:59:49;26.95;;;17.02;;
25073;SDS011;13066;52.042;5.648;2023-08-12T03:02:17;32.03;;;16.30;;
25073;SDS011;13066;52.042;5.648;2023-08-12T03:04:46;26.88;;;16.45;;
25073;SDS011;13066;52.042;5.648;2023-08-12T03:07:14;27.45;;;16.63;;
25073;SDS011;13066;52.042;5.648;2023-08-12T03:09:42;29.33;;;16.50;;
25073;SDS011;13066;52.042;5.648;2023-08-12T03:12:10;29.50;;;16.17;;
25073;SDS011;13066;52.042;5.648;2023-08-12T03:14:38;25.13;;;17.70;;
25073;SDS011;13066;52.042;5.648;2023-08-12T03:17:07;28.20;;;15.93;;
25073;SDS011;13066;52.042;5.648;2023-08-12T03:19:36;26.67;;;15.63;;
25073;SDS011;13066;52.042;5.648;2023-08-12T03:22:06;28.60;;;16.02;;
25073;SDS011;13066;52.042;5.648;2023-08-12T03:24:36;26.08;;;16.23;;
25073;SDS011;13066;52.042;5.648;2023-08-12T03:27:04;27.77;;;17.38;;
25073;SDS011;13066;52.042;5.648;2023-08-12T03:29:32;25.90;;;16.33;;
25073;SDS011;13066;52.042;5.648;2023-08-12T03:32:00;26.95;;;18.20;;
25073;SDS011;13066;52.042;5.648;2023-08-12T03:34:29;35.20;;;18.55;;
25073;SDS011;13066;52.042;5.648;2023-08-12T03:36:57;28.48;;;17.88;;
25073;SDS011;13066;52.042;5.648;2023-08-12T03:39:27;27.92;;;17.80;;
25073;SDS011;13066;52.042;5.648;2023-08-12T03:41:57;27.80;;;17.60;;
25073;SDS011;13066;52.042;5.648;2023-08-12T03:44:25;27.80;;;17.92;;
25073;SDS011;13066;52.042;5.648;2023-08-12T03:46:53;28.95;;;17.73;;
25073;SDS011;13066;52.042;5.648;2023-08-12T03:49:21;27.63;;;16.13;;
25073;SDS011;13066;52.042;5.648;2023-08-12T03:51:49;32.28;;;17.88;;
25073;SDS011;13066;52.042;5.648;2023-08-12T03:54:17;24.30;;;17.88;;
25073;SDS011;13066;52.042;5.648;2023-08-12T03:56:46;26.10;;;17.05;;
25073;SDS011;13066;52.042;5.648;2023-08-12T03:59:15;24.30;;;17.05;;
25073;SDS011;13066;52.042;5.648;2023-08-12T04:01:42;27.80;;;17.60;;
25073;SDS011;13066;52.042;5.648;2023-08-12T04:04:10;29.48;;;16.55;;
25073;SDS011;13066;52.042;5.648;2023-08-12T04:06:40;29.30;;;16.40;;
25073;SDS011;13066;52.042;5.648;2023-08-12T04:09:08;29.42;;;17.30;;
25073;SDS011;13066;52.042;5.648;2023-08-12T04:11:36;23.92;;;15.45;;
25073;SDS011;13066;52.042;5.648;2023-08-12T04:14:05;30.77;;;16.13;;
25073;SDS011;13066;52.042;5.648;2023-08-12T04:16:33;28.42;;;16.95;;
25073;SDS011;13066;52.042;5.648;2023-08-12T04:19:01;26.23;;;16.70;;
25073;SDS011;13066;52.042;5.648;2023-08-12T04:21:29;28.55;;;16.70;;
25073;SDS011;13066;52.042;5.648;2023-08-12T04:23:56;25.95;;;16.48;;
25073;SDS011;13066;52.042;5.648;2023-08-12T04:26:24;25.20;;;17.08;;
25073;SDS011;13066;52.042;5.648;2023-08-12T04:28:53;30.70;;;15.98;;
25073;SDS011;13066;52.042;5.648;2023-08-12T04:31:22;24.45;;;15.88;;
25073;SDS011;13066;52.042;5.648;2023-08-12T04:33:50;22.95;;;15.15;;
25073;SDS011;13066;52.042;5.648;2023-08-12T04:36:21;24.40;;;15.40;;
25073;SDS011;13066;52.042;5.648;2023-08-12T04:38:49;25.77;;;14.38;;
25073;SDS011;13066;52.042;5.648;2023-08-12T04:41:17;24.58;;;15.05;;
25073;SDS011;13066;52.042;5.648;2023-08-12T04:43:45;27.00;;;16.02;;
25073;SDS011;13066;52.042;5.648;2023-08-12T04:46:13;25.05;;;15.30;;
25073;SDS011;13066;52.042;5.648;2023-08-12T04:48:42;25.98;;;15.70;;
25073;SDS011;13066;52.042;5.648;2023-08-12T04:51:10;25.38;;;15.50;;
25073;SDS011;13066;52.042;5.648;2023-08-12T04:53:38;27.73;;;16.92;;
25073;SDS011;13066;52.042;5.648;2023-08-12T04:56:06;23.75;;;16.08;;
25073;SDS011;13066;52.042;5.648;2023-08-12T04:58:34;31.60;;;16.55;;
25073;SDS011;13066;52.042;5.648;2023-08-12T05:01:03;23.50;;;16.65;;
25073;SDS011;13066;52.042;5.648;2023-08-12T05:03:31;27.17;;;16.85;;
25073;SDS011;13066;52.042;5.648;2023-08-12T05:06:01;20.73;;;15.00;;
25073;SDS011;13066;52.042;5.648;2023-08-12T05:08:29;26.45;;;15.95;;
25073;SDS011;13066;52.042;5.648;2023-08-12T05:10:57;21.98;;;15.75;;
25073;SDS011;13066;52.042;5.648;2023-08-12T05:13:25;25.65;;;15.30;;
25073;SDS011;13066;52.042;5.648;2023-08-12T05:15:54;30.40;;;17.23;;
25073;SDS011;13066;52.042;5.648;2023-08-12T05:18:22;26.15;;;16.63;;
25073;SDS011;13066;52.042;5.648;2023-08-12T05:20:59;22.02;;;15.50;;
25073;SDS011;13066;52.042;5.648;2023-08-12T05:23:28;27.50;;;17.23;;
25073;SDS011;13066;52.042;5.648;2023-08-12T05:25:56;26.52;;;15.23;;
25073;SDS011;13066;52.042;5.648;2023-08-12T05:28:41;27.30;;;14.80;;
25073;SDS011;13066;52.042;5.648;2023-08-12T05:31:09;23.27;;;15.27;;
25073;SDS011;13066;52.042;5.648;2023-08-12T05:33:37;30.25;;;16.27;;
25073;SDS011;13066;52.042;5.648;2023-08-12T05:36:06;23.33;;;15.07;;
25073;SDS011;13066;52.042;5.648;2023-08-12T05:38:35;22.65;;;14.30;;
25073;SDS011;13066;52.042;5.648;2023-08-12T05:41:03;20.75;;;15.05;;
25073;SDS011;13066;52.042;5.648;2023-08-12T05:43:33;24.88;;;14.88;;
25073;SDS011;13066;52.042;5.648;2023-08-12T05:46:01;24.73;;;15.32;;
25073;SDS011;13066;52.042;5.648;2023-08-12T05:48:29;22.55;;;14.32;;
25073;SDS011;13066;52.042;5.648;2023-08-12T05:50:57;17.27;;;13.32;;
25073;SDS011;13066;52.042;5.648;2023-08-12T05:53:26;23.40;;;14.88;;
25073;SDS011;13066;52.042;5.648;2023-08-12T05:55:54;22.17;;;15.77;;
25073;SDS011;13066;52.042;5.648;2023-08-12T05:58:22;25.08;;;15.13;;
25073;SDS011;13066;52.042;5.648;2023-08-12T06:00:50;23.77;;;14.52;;
25073;SDS011;13066;52.042;5.648;2023-08-12T06:03:18;26.25;;;13.88;;
25073;SDS011;13066;52.042;5.648;2023-08-12T06:05:46;21.92;;;14.23;;
25073;SDS011;13066;52.042;5.648;2023-08-12T06:08:14;25.40;;;14.10;;
25073;SDS011;13066;52.042;5.648;2023-08-12T06:10:44;22.15;;;13.02;;
25073;SDS011;13066;52.042;5.648;2023-08-12T06:13:11;19.13;;;13.05;;
25073;SDS011;13066;52.042;5.648;2023-08-12T06:15:40;23.45;;;13.65;;
25073;SDS011;13066;52.042;5.648;2023-08-12T06:18:07;21.27;;;13.52;;
25073;SDS011;13066;52.042;5.648;2023-08-12T06:20:36;21.77;;;12.63;;
25073;SDS011;13066;52.042;5.648;2023-08-12T06:23:03;17.33;;;12.10;;
25073;SDS011;13066;52.042;5.648;2023-08-12T06:25:32;24.92;;;12.07;;
25073;SDS011;13066;52.042;5.648;2023-08-12T06:28:18;16.88;;;12.13;;
25073;SDS011;13066;52.042;5.648;2023-08-12T06:33:29;20.27;;;12.45;;
25073;SDS011;13066;52.042;5.648;2023-08-12T06:36:04;19.95;;;12.20;;
25073;SDS011;13066;52.042;5.648;2023-08-12T06:38:32;15.30;;;11.20;;
25073;SDS011;13066;52.042;5.648;2023-08-12T06:41:00;18.63;;;12.50;;
25073;SDS011;13066;52.042;5.648;2023-08-12T06:43:29;16.15;;;11.73;;
25073;SDS011;13066;52.042;5.648;2023-08-12T06:45:57;17.05;;;11.07;;
25073;SDS011;13066;52.042;5.648;2023-08-12T06:48:25;15.75;;;10.38;;
25073;SDS011;13066;52.042;5.648;2023-08-12T06:50:53;16.35;;;9.88;;
25073;SDS011;13066;52.042;5.648;2023-08-12T06:53:22;13.88;;;9.10;;
25073;SDS011;13066;52.042;5.648;2023-08-12T06:55:50;15.18;;;9.88;;
25073;SDS011;13066;52.042;5.648;2023-08-12T06:58:18;15.23;;;9.35;;
25073;SDS011;13066;52.042;5.648;2023-08-12T07:00:47;18.42;;;8.18;;
25073;SDS011;13066;52.042;5.648;2023-08-12T07:03:15;13.68;;;8.20;;
25073;SDS011;13066;52.042;5.648;2023-08-12T07:05:43;12.50;;;7.78;;
25073;SDS011;13066;52.042;5.648;2023-08-12T07:08:11;10.77;;;7.03;;
25073;SDS011;13066;52.042;5.648;2023-08-12T07:10:39;8.48;;;6.50;;
25073;SDS011;13066;52.042;5.648;2023-08-12T07:13:07;11.65;;;6.03;;
25073;SDS011;13066;52.042;5.648;2023-08-12T07:15:35;8.25;;;5.35;;
25073;SDS011;13066;52.042;5.648;2023-08-12T07:18:04;10.75;;;4.93;;
25073;SDS011;13066;52.042;5.648;2023-08-12T07:20:32;9.40;;;5.57;;
25073;SDS011;13066;52.042;5.648;2023-08-12T07:23:00;10.65;;;5.60;;
25073;SDS011;13066;52.042;5.648;2023-08-12T07:25:28;10.50;;;5.30;;
25073;SDS011;13066;52.042;5.648;2023-08-12T07:27:57;6.65;;;4.90;;
25073;SDS011;13066;52.042;5.648;2023-08-12T07:30:25;7.82;;;5.53;;
25073;SDS011;13066;52.042;5.648;2023-08-12T07:32:53;6.25;;;5.00;;
25073;SDS011;13066;52.042;5.648;2023-08-12T07:35:26;10.05;;;5.68;;
25073;SDS011;13066;52.042;5.648;2023-08-12T07:37:54;10.23;;;5.90;;
25073;SDS011;13066;52.042;5.648;2023-08-12T07:40:21;8.98;;;6.03;;
25073;SDS011;13066;52.042;5.648;2023-08-12T07:42:49;9.55;;;6.35;;
25073;SDS011;13066;52.042;5.648;2023-08-12T07:45:17;10.20;;;6.47;;
25073;SDS011;13066;52.042;5.648;2023-08-12T07:47:45;10.02;;;6.55;;
25073;SDS011;13066;52.042;5.648;2023-08-12T07:50:13;8.15;;;6.05;;
25073;SDS011;13066;52.042;5.648;2023-08-12T07:52:43;7.95;;;5.70;;
25073;SDS011;13066;52.042;5.648;2023-08-12T07:55:11;9.57;;;5.45;;
25073;SDS011;13066;52.042;5.648;2023-08-12T07:57:39;7.40;;;5.60;;
25073;SDS011;13066;52.042;5.648;2023-08-12T08:00:07;5.32;;;4.82;;
25073;SDS011;13066;52.042;5.648;2023-08-12T08:02:36;8.20;;;4.90;;
25073;SDS011;13066;52.042;5.648;2023-08-12T08:05:05;5.55;;;4.28;;
25073;SDS011;13066;52.042;5.648;2023-08-12T08:07:34;7.25;;;4.85;;
25073;SDS011;13066;52.042;5.648;2023-08-12T08:10:04;5.38;;;4.45;;
25073;SDS011;13066;52.042;5.648;2023-08-12T08:12:32;5.35;;;4.40;;
25073;SDS011;13066;52.042;5.648;2023-08-12T08:15:00;5.97;;;3.80;;
25073;SDS011;13066;52.042;5.648;2023-08-12T08:17:29;7.72;;;3.78;;
25073;SDS011;13066;52.042;5.648;2023-08-12T08:19:57;4.35;;;3.88;;
25073;SDS011;13066;52.042;5.648;2023-08-12T08:22:25;4.65;;;3.70;;
25073;SDS011;13066;52.042;5.648;2023-08-12T08:24:56;4.35;;;3.47;;
25073;SDS011;13066;52.042;5.648;2023-08-12T08:27:25;4.57;;;3.47;;
25073;SDS011;13066;52.042;5.648;2023-08-12T08:29:53;3.55;;;3.25;;
25073;SDS011;13066;52.042;5.648;2023-08-12T08:32:21;4.75;;;2.88;;
25073;SDS011;13066;52.042;5.648;2023-08-12T08:34:49;2.88;;;2.65;;
25073;SDS011;13066;52.042;5.648;2023-08-12T08:37:17;2.70;;;2.50;;
25073;SDS011;13066;52.042;5.648;2023-08-12T08:39:45;2.80;;;2.42;;
25073;SDS011;13066;52.042;5.648;2023-08-12T08:42:13;3.33;;;2.40;;
25073;SDS011;13066;52.042;5.648;2023-08-12T08:44:46;2.55;;;2.35;;
25073;SDS011;13066;52.042;5.648;2023-08-12T08:47:19;2.30;;;2.10;;
25073;SDS011;13066;52.042;5.648;2023-08-12T08:49:53;2.20;;;2.00;;
25073;SDS011;13066;52.042;5.648;2023-08-12T08:52:23;2.05;;;1.70;;
25073;SDS011;13066;52.042;5.648;2023-08-12T08:54:51;1.50;;;1.40;;
25073;SDS011;13066;52.042;5.648;2023-08-12T08:57:19;2.25;;;1.50;;
25073;SDS011;13066;52.042;5.648;2023-08-12T09:00:06;1.50;;;1.40;;
25073;SDS011;13066;52.042;5.648;2023-08-12T09:02:39;1.40;;;1.30;;
25073;SDS011;13066;52.042;5.648;2023-08-12T09:05:08;2.97;;;1.40;;
25073;SDS011;13066;52.042;5.648;2023-08-12T09:07:36;1.65;;;1.35;;
25073;SDS011;13066;52.042;5.648;2023-08-12T09:10:04;1.48;;;1.33;;
25073;SDS011;13066;52.042;5.648;2023-08-12T09:12:33;1.40;;;1.30;;
25073;SDS011;13066;52.042;5.648;2023-08-12T09:15:03;1.45;;;1.30;;
25073;SDS011;13066;52.042;5.648;2023-08-12T09:17:34;1.10;;;1.05;;
25073;SDS011;13066;52.042;5.648;2023-08-12T09:20:02;1.67;;;1.25;;
25073;SDS011;13066;52.042;5.648;2023-08-12T09:22:34;1.45;;;1.10;;
25073;SDS011;13066;52.042;5.648;2023-08-12T09:25:02;2.30;;;1.10;;
25073;SDS011;13066;52.042;5.648;2023-08-12T09:27:31;2.78;;;0.95;;
25073;SDS011;13066;52.042;5.648;2023-08-12T09:30:02;2.05;;;0.90;;
25073;SDS011;13066;52.042;5.648;2023-08-12T09:32:31;1.52;;;0.93;;
25073;SDS011;13066;52.042;5.648;2023-08-12T09:35:02;1.13;;;1.02;;
25073;SDS011;13066;52.042;5.648;2023-08-12T09:37:32;1.13;;;1.00;;
25073;SDS011;13066;52.042;5.648;2023-08-12T09:40:00;2.67;;;1.30;;
25073;SDS011;13066;52.042;5.648;2023-08-12T09:42:32;2.95;;;1.08;;
25073;SDS011;13066;52.042;5.648;2023-08-12T09:45:00;1.23;;;1.13;;
25073;SDS011;13066;52.042;5.648;2023-08-12T09:47:29;1.30;;;1.20;;
25073;SDS011;13066;52.042;5.648;2023-08-12T09:49:57;1.80;;;1.38;;
25073;SDS011;13066;52.042;5.648;2023-08-12T09:52:27;2.17;;;1.40;;
25073;SDS011;13066;52.042;5.648;2023-08-12T09:54:55;1.20;;;1.10;;
25073;SDS011;13066;52.042;5.648;2023-08-12T09:57:25;2.33;;;1.90;;
25073;SDS011;13066;52.042;5.648;2023-08-12T09:59:53;3.50;;;1.85;;
25073;SDS011;13066;52.042;5.648;2023-08-12T10:02:21;4.82;;;2.90;;
25073;SDS011;13066;52.042;5.648;2023-08-12T10:04:49;2.88;;;2.17;;
25073;SDS011;13066;52.042;5.648;2023-08-12T10:07:18;7.90;;;2.35;;
25073;SDS011;13066;52.042;5.648;2023-08-12T10:09:47;4.15;;;2.50;;
25073;SDS011;13066;52.042;5.648;2023-08-12T10:12:18;4.72;;;2.58;;
25073;SDS011;13066;52.042;5.648;2023-08-12T10:14:46;6.00;;;2.90;;
25073;SDS011;13066;52.042;5.648;2023-08-12T10:17:14;6.07;;;3.10;;
25073;SDS011;13066;52.042;5.648;2023-08-12T10:20:03;4.40;;;2.88;;
25073;SDS011;13066;52.042;5.648;2023-08-12T10:22:32;7.60;;;3.10;;
25073;SDS011;13066;52.042;5.648;2023-08-12T10:25:02;7.18;;;3.20;;
25073;SDS011;13066;52.042;5.648;2023-08-12T10:27:31;5.40;;;2.92;;
25073;SDS011;13066;52.042;5.648;2023-08-12T10:29:59;7.03;;;2.92;;
25073;SDS011;13066;52.042;5.648;2023-08-12T10:32:31;6.43;;;3.33;;
25073;SDS011;13066;52.042;5.648;2023-08-12T10:34:59;6.57;;;2.97;;
25073;SDS011;13066;52.042;5.648;2023-08-12T10:37:27;6.35;;;2.85;;
25073;SDS011;13066;52.042;5.648;2023-08-12T10:39:59;5.82;;;2.53;;
25073;SDS011;13066;52.042;5.648;2023-08-12T10:42:40;5.47;;;2.60;;
25073;SDS011;13066;52.042;5.648;2023-08-12T10:45:09;6.32;;;2.55;;
25073;SDS011;13066;52.042;5.648;2023-08-12T10:47:39;8.20;;;2.65;;
25073;SDS011;13066;52.042;5.648;2023-08-12T10:50:16;9.40;;;2.60;;
25073;SDS011;13066;52.042;5.648;2023-08-12T10:52:45;7.05;;;2.33;;
25073;SDS011;13066;52.042;5.648;2023-08-12T10:55:19;6.60;;;2.42;;
25073;SDS011;13066;52.042;5.648;2023-08-12T10:57:48;7.80;;;2.45;;
25073;SDS011;13066;52.042;5.648;2023-08-12T11:00:22;5.45;;;2.10;;
25073;SDS011;13066;52.042;5.648;2023-08-12T11:02:51;4.85;;;2.17;;
25073;SDS011;13066;52.042;5.648;2023-08-12T11:05:20;6.15;;;2.10;;
25073;SDS011;13066;52.042;5.648;2023-08-12T11:07:49;7.55;;;2.30;;
25073;SDS011;13066;52.042;5.648;2023-08-12T11:10:24;5.35;;;2.17;;
25073;SDS011;13066;52.042;5.648;2023-08-12T11:12:53;5.13;;;2.05;;
25073;SDS011;13066;52.042;5.648;2023-08-12T11:15:29;10.48;;;2.40;;
25073;SDS011;13066;52.042;5.648;2023-08-12T11:17:57;7.20;;;2.17;;
25073;SDS011;13066;52.042;5.648;2023-08-12T11:20:27;7.35;;;2.50;;
25073;SDS011;13066;52.042;5.648;2023-08-12T11:22:55;6.07;;;2.45;;
25073;SDS011;13066;52.042;5.648;2023-08-12T11:25:27;9.00;;;2.17;;
25073;SDS011;13066;52.042;5.648;2023-08-12T11:27:56;12.23;;;3.15;;
25073;SDS011;13066;52.042;5.648;2023-08-12T11:30:24;9.10;;;2.63;;
25073;SDS011;13066;52.042;5.648;2023-08-12T11:32:55;7.88;;;2.55;;
25073;SDS011;13066;52.042;5.648;2023-08-12T11:35:23;10.20;;;2.90;;
25073;SDS011;13066;52.042;5.648;2023-08-12T11:37:52;7.68;;;2.53;;
25073;SDS011;13066;52.042;5.648;2023-08-12T11:40:22;11.30;;;2.78;;
25073;SDS011;13066;52.042;5.648;2023-08-12T11:42:52;5.65;;;2.55;;
25073;SDS011;13066;52.042;5.648;2023-08-12T11:45:20;8.38;;;2.75;;
25073;SDS011;13066;52.042;5.648;2023-08-12T11:47:49;8.30;;;2.40;;
25073;SDS011;13066;52.042;5.648;2023-08-12T11:50:22;6.95;;;2.35;;
25073;SDS011;13066;52.042;5.648;2023-08-12T11:52:51;8.30;;;2.38;;
25073;SDS011;13066;52.042;5.648;2023-08-12T11:55:19;8.98;;;2.50;;
25073;SDS011;13066;52.042;5.648;2023-08-12T11:57:47;8.25;;;2.50;;
25073;SDS011;13066;52.042;5.648;2023-08-12T12:00:18;6.78;;;2.40;;
25073;SDS011;13066;52.042;5.648;2023-08-12T12:02:48;9.27;;;2.35;;
25073;SDS011;13066;52.042;5.648;2023-08-12T12:05:16;8.35;;;2.33;;
25073;SDS011;13066;52.042;5.648;2023-08-12T12:07:49;5.97;;;2.28;;
25073;SDS011;13066;52.042;5.648;2023-08-12T12:10:18;10.63;;;2.50;;
25073;SDS011;13066;52.042;5.648;2023-08-12T12:12:46;11.20;;;2.47;;
25073;SDS011;13066;52.042;5.648;2023-08-12T12:15:14;6.30;;;2.05;;
25073;SDS011;13066;52.042;5.648;2023-08-12T12:17:44;6.45;;;2.40;;
25073;SDS011;13066;52.042;5.648;2023-08-12T12:20:12;7.88;;;2.00;;
25073;SDS011;13066;52.042;5.648;2023-08-12T12:22:41;11.48;;;2.55;;
25073;SDS011;13066;52.042;5.648;2023-08-12T12:25:10;5.57;;;2.08;;
25073;SDS011;13066;52.042;5.648;2023-08-12T12:27:39;7.07;;;2.15;;
25073;SDS011;13066;52.042;5.648;2023-08-12T12:30:08;5.15;;;1.83;;
25073;SDS011;13066;52.042;5.648;2023-08-12T12:32:37;9.82;;;2.00;;
25073;SDS011;13066;52.042;5.648;2023-08-12T12:35:07;5.75;;;2.10;;
25073;SDS011;13066;52.042;5.648;2023-08-12T12:37:36;6.68;;;2.08;;
25073;SDS011;13066;52.042;5.648;2023-08-12T12:40:04;6.82;;;1.85;;
25073;SDS011;13066;52.042;5.648;2023-08-12T12:42:33;9.35;;;2.10;;
25073;SDS011;13066;52.042;5.648;2023-08-12T12:45:01;8.07;;;2.20;;
25073;SDS011;13066;52.042;5.648;2023-08-12T12:47:29;8.65;;;2.38;;
25073;SDS011;13066;52.042;5.648;2023-08-12T12:49:57;19.38;;;2.70;;
25073;SDS011;13066;52.042;5.648;2023-08-12T12:52:27;8.13;;;2.22;;
25073;SDS011;13066;52.042;5.648;2023-08-12T12:54:55;11.32;;;2.35;;
25073;SDS011;13066;52.042;5.648;2023-08-12T12:57:24;9.73;;;2.20;;
25073;SDS011;13066;52.042;5.648;2023-08-12T12:59:52;9.77;;;2.22;;
25073;SDS011;13066;52.042;5.648;2023-08-12T13:02:20;10.20;;;2.35;;
25073;SDS011;13066;52.042;5.648;2023-08-12T13:04:47;11.45;;;2.40;;
25073;SDS011;13066;52.042;5.648;2023-08-12T13:07:16;8.27;;;2.20;;
25073;SDS011;13066;52.042;5.648;2023-08-12T13:09:45;6.90;;;2.50;;
25073;SDS011;13066;52.042;5.648;2023-08-12T13:12:13;9.80;;;2.50;;
25073;SDS011;13066;52.042;5.648;2023-08-12T13:14:41;8.43;;;2.00;;
25073;SDS011;13066;52.042;5.648;2023-08-12T13:17:09;9.65;;;2.25;;
25073;SDS011;13066;52.042;5.648;2023-08-12T13:19:37;13.40;;;2.42;;
25073;SDS011;13066;52.042;5.648;2023-08-12T13:22:05;11.18;;;3.00;;
25073;SDS011;13066;52.042;5.648;2023-08-12T13:24:33;9.52;;;2.22;;
25073;SDS011;13066;52.042;5.648;2023-08-12T13:27:03;12.15;;;3.30;;
25073;SDS011;13066;52.042;5.648;2023-08-12T13:29:31;8.70;;;2.67;;
25073;SDS011;13066;52.042;5.648;2023-08-12T13:31:59;13.13;;;2.72;;
25073;SDS011;13066;52.042;5.648;2023-08-12T13:34:26;8.13;;;2.80;;
25073;SDS011;13066;52.042;5.648;2023-08-12T13:36:54;9.50;;;2.50;;
25073;SDS011;13066;52.042;5.648;2023-08-12T13:39:22;10.50;;;2.90;;
25073;SDS011;13066;52.042;5.648;2023-08-12T13:41:50;6.78;;;2.28;;
25073;SDS011;13066;52.042;5.648;2023-08-12T13:44:20;10.38;;;3.00;;
25073;SDS011;13066;52.042;5.648;2023-08-12T13:46:48;11.60;;;2.80;;
25073;SDS011;13066;52.042;5.648;2023-08-12T13:49:15;8.35;;;2.33;;
25073;SDS011;13066;52.042;5.648;2023-08-12T13:51:44;9.48;;;2.80;;
25073;SDS011;13066;52.042;5.648;2023-08-12T13:54:11;7.32;;;3.03;;
25073;SDS011;13066;52.042;5.648;2023-08-12T13:56:39;9.77;;;1.95;;
25073;SDS011;13066;52.042;5.648;2023-08-12T13:59:07;11.30;;;3.53;;
25073;SDS011;13066;52.042;5.648;2023-08-12T14:01:36;10.65;;;3.20;;
25073;SDS011;13066;52.042;5.648;2023-08-12T14:04:07;8.85;;;4.20;;
25073;SDS011;13066;52.042;5.648;2023-08-12T14:06:35;11.52;;;3.20;;
25073;SDS011;13066;52.042;5.648;2023-08-12T14:09:03;13.73;;;3.30;;
25073;SDS011;13066;52.042;5.648;2023-08-12T14:11:31;7.10;;;3.15;;
25073;SDS011;13066;52.042;5.648;2023-08-12T14:13:59;12.93;;;3.30;;
25073;SDS011;13066;52.042;5.648;2023-08-12T14:16:27;27.00;;;3.38;;
25073;SDS011;13066;52.042;5.648;2023-08-12T14:18:56;14.13;;;6.32;;
25073;SDS011;13066;52.042;5.648;2023-08-12T14:21:24;15.75;;;6.78;;
25073;SDS011;13066;52.042;5.648;2023-08-12T14:23:52;13.68;;;3.00;;
25073;SDS011;13066;52.042;5.648;2023-08-12T14:26:20;14.13;;;3.10;;
25073;SDS011;13066;52.042;5.648;2023-08-12T14:28:48;12.60;;;3.03;;
25073;SDS011;13066;52.042;5.648;2023-08-12T14:31:16;11.20;;;3.00;;
25073;SDS011;13066;52.042;5.648;2023-08-12T14:33:44;14.05;;;3.17;;
25073;SDS011;13066;52.042;5.648;2023-08-12T14:36:14;11.05;;;2.65;;
25073;SDS011;13066;52.042;5.648;2023-08-12T14:38:42;7.10;;;2.53;;
25073;SDS011;13066;52.042;5.648;2023-08-12T14:41:10;12.93;;;3.35;;
25073;SDS011;13066;52.042;5.648;2023-08-12T14:43:38;11.77;;;3.10;;
25073;SDS011;13066;52.042;5.648;2023-08-12T14:46:06;14.90;;;2.80;;